Time;durP1;ratioP1;P1;durP2;ratioP2;P2;SDS_P1;SDS_P2;PMS_P1;PMS_P2;Temp;Humidity;BMP_temperature;BMP_pressure;BME280_temperature;BME280_humidity;BME280_pressure;Samples;Min_cycle;Max_cycle;Signal;HPM_P1;HPM_P2
2023/09/02 00:00:40;;;;;;;14.20;11.38;;;;;;;21.05;70.10;95579.53;5032950;28;20230;-76
2023/09/02 00:03:06;;;;;;;15.38;11.43;;;;;;;20.88;70.84;95573.44;5050712;28;20236;-76
2023/09/02 00:05:31;;;;;;;15.77;11.50;;;;;;;20.78;71.42;95575.97;5059219;28;20232;-76
2023/09/02 00:07:57;;;;;;;15.23;11.45;;;;;;;20.74;71.79;95575.66;5023660;28;20240;-76
2023/09/02 00:13:24;;;;;;;14.73;11.43;;;;;;;20.94;70.52;95574.31;5006912;28;22297;-75
2023/09/02 00:16:04;;;;;;;14.67;11.67;;;;;;;20.93;70.54;95575.34;5049320;28;20773;-77
2023/09/02 00:18:30;;;;;;;13.73;11.20;;;;;;;20.85;70.70;95567.81;5012214;28;20234;-76
2023/09/02 00:21:24;;;;;;;15.30;11.55;;;;;;;20.79;70.59;95570.41;5020008;28;20919;-75
2023/09/02 00:23:50;;;;;;;15.20;11.47;;;;;;;20.82;70.80;95571.78;5030090;28;20229;-77
2023/09/02 00:26:15;;;;;;;13.75;11.23;;;;;;;20.72;71.13;95574.31;5031911;28;20240;-75
2023/09/02 00:28:41;;;;;;;15.67;11.90;;;;;;;20.48;72.04;95568.41;5020363;28;20631;-76
2023/09/02 00:31:07;;;;;;;15.10;11.45;;;;;;;20.49;71.99;95564.66;5029598;28;20238;-77
2023/09/02 00:33:36;;;;;;;14.35;11.40;;;;;;;20.57;72.01;95569.56;5019570;28;20701;-76
2023/09/02 00:36:33;;;;;;;13.97;11.37;;;;;;;20.47;72.25;95569.44;5038973;28;20242;-74
2023/09/02 00:39:02;;;;;;;16.13;11.60;;;;;;;20.39;72.41;95575.19;5019224;28;20242;-74
2023/09/02 00:41:32;;;;;;;16.47;11.70;;;;;;;20.52;71.87;95579.34;5016447;28;20233;-74
2023/09/02 00:43:58;;;;;;;14.73;11.87;;;;;;;20.51;72.18;95581.22;5028135;28;20681;-73
2023/09/02 00:46:45;;;;;;;15.37;11.40;;;;;;;20.25;73.50;95586.41;5000938;28;20233;-73
2023/09/02 00:49:12;;;;;;;14.67;11.50;;;;;;;20.40;72.85;95586.59;4982913;28;20377;-74
2023/09/02 00:51:38;;;;;;;14.37;11.17;;;;;;;20.26;73.03;95583.47;5030659;28;20241;-74
2023/09/02 00:54:06;;;;;;;15.10;11.80;;;;;;;20.28;73.11;95584.03;4997491;28;20241;-74
2023/09/02 00:56:38;;;;;;;17.70;11.70;;;;;;;20.30;73.10;95589.13;5046855;28;20237;-75
2023/09/02 00:59:24;;;;;;;16.37;11.83;;;;;;;20.17;73.45;95577.75;5019325;28;20265;-75
2023/09/02 01:01:49;;;;;;;15.07;11.53;;;;;;;20.27;73.52;95581.63;5019697;28;20693;-74
2023/09/02 01:04:15;;;;;;;16.87;11.40;;;;;;;20.15;74.02;95574.53;5029185;28;20230;-73
2023/09/02 01:06:40;;;;;;;15.77;11.70;;;;;;;20.13;74.57;95581.91;5045402;28;20233;-73
2023/09/02 01:09:06;;;;;;;17.47;11.73;;;;;;;20.12;74.48;95572.34;5026183;28;20238;-74
2023/09/02 01:11:35;;;;;;;16.10;12.07;;;;;;;20.10;74.45;95582.44;5015664;28;20238;-74
2023/09/02 01:14:01;;;;;;;14.33;11.40;;;;;;;20.23;74.16;95577.88;5033041;28;20241;-74
2023/09/02 01:16:27;;;;;;;15.27;11.73;;;;;;;19.95;75.14;95587.50;5014736;28;20400;-74
2023/09/02 01:18:52;;;;;;;15.67;11.87;;;;;;;19.97;75.53;95581.91;5044415;28;20230;-74
2023/09/02 01:21:42;;;;;;;16.20;11.77;;;;;;;19.92;75.57;95580.00;5017504;28;20658;-75
2023/09/02 01:24:39;;;;;;;17.33;11.87;;;;;;;19.89;75.78;95580.50;5041047;28;20260;-75
2023/09/02 01:27:20;;;;;;;18.00;12.20;;;;;;;19.97;75.26;95584.59;5037964;28;20339;-74
2023/09/02 01:29:55;;;;;;;15.27;11.90;;;;;;;19.88;75.45;95586.84;5053189;28;20367;-74
2023/09/02 01:32:21;;;;;;;16.53;12.13;;;;;;;19.75;76.37;95579.16;5019841;28;20237;-74
2023/09/02 01:34:47;;;;;;;16.07;11.93;;;;;;;19.75;76.74;95591.66;5015947;28;20233;-75
2023/09/02 01:37:12;;;;;;;15.73;11.85;;;;;;;19.66;77.11;95588.59;5030345;28;23056;-74
2023/09/02 01:39:38;;;;;;;15.27;12.07;;;;;;;19.64;77.43;95587.22;5028787;28;20236;-74
2023/09/02 01:42:07;;;;;;;16.77;12.20;;;;;;;19.55;77.68;95586.00;5013080;28;20291;-75
2023/09/02 01:44:32;;;;;;;16.20;11.83;;;;;;;19.53;78.12;95596.88;5012292;28;20252;-74
2023/09/02 01:47:01;;;;;;;17.20;12.00;;;;;;;19.65;77.12;95594.97;5037148;28;20323;-74
2023/09/02 01:49:27;;;;;;;14.23;11.57;;;;;;;19.47;77.94;95595.16;5022558;28;20278;-73
2023/09/02 01:51:52;;;;;;;16.30;12.00;;;;;;;19.59;77.93;95590.59;5029287;28;20236;-74
2023/09/02 01:54:27;;;;;;;16.47;12.57;;;;;;;19.58;77.88;95594.31;5015304;28;20221;-76
2023/09/02 01:56:53;;;;;;;17.27;12.18;;;;;;;19.44;78.28;95593.78;5018010;28;20263;-76
2023/09/02 01:59:18;;;;;;;16.13;12.20;;;;;;;19.37;78.70;95592.28;5030010;28;20229;-74
2023/09/02 02:01:44;;;;;;;17.23;12.20;;;;;;;19.46;78.32;95596.97;5018183;28;20241;-75
2023/09/02 02:04:18;;;;;;;15.93;12.00;;;;;;;19.66;77.60;95593.91;5042191;28;20934;-74
2023/09/02 02:06:44;;;;;;;16.07;12.13;;;;;;;19.59;77.48;95595.91;5030210;28;21132;-74
2023/09/02 02:09:12;;;;;;;16.20;12.13;;;;;;;19.59;77.31;95603.06;5017171;28;20222;-74
2023/09/02 02:11:38;;;;;;;16.30;12.43;;;;;;;19.41;78.21;95598.75;5027992;28;20225;-74
2023/09/02 02:14:04;;;;;;;15.73;11.83;;;;;;;19.33;78.25;95599.09;5039473;28;20243;-73
2023/09/02 02:16:30;;;;;;;15.50;12.13;;;;;;;19.19;79.16;95600.44;5019540;28;20297;-73
2023/09/02 02:18:56;;;;;;;16.57;12.23;;;;;;;19.34;78.54;95596.22;5029868;28;20245;-74
2023/09/02 02:24:14;;;;;;;17.57;12.33;;;;;;;19.30;78.79;95602.22;5026808;28;20229;-72
2023/09/02 02:26:40;;;;;;;16.90;12.10;;;;;;;19.28;78.91;95604.31;5030325;28;20233;-74
2023/09/02 02:29:08;;;;;;;15.53;12.33;;;;;;;19.42;78.44;95600.34;5021342;28;20229;-73
2023/09/02 02:31:36;;;;;;;19.90;12.67;;;;;;;19.36;78.44;95596.81;5027685;28;20607;-74
2023/09/02 02:34:02;;;;;;;18.60;12.57;;;;;;;19.42;78.59;95595.84;5028040;28;20312;-74
2023/09/02 02:36:30;;;;;;;17.83;12.60;;;;;;;19.45;78.31;95597.22;5007318;28;20321;-74
2023/09/02 02:38:56;;;;;;;16.50;12.20;;;;;;;19.46;78.07;95596.22;5042244;28;20249;-74
2023/09/02 02:41:22;;;;;;;17.57;12.43;;;;;;;19.34;78.48;95598.06;5029068;28;20233;-75
2023/09/02 02:43:47;;;;;;;16.83;12.37;;;;;;;19.36;78.11;95593.34;5039141;28;21172;-73
2023/09/02 02:46:13;;;;;;;16.67;12.43;;;;;;;19.38;78.15;95597.38;5031557;28;21038;-73
2023/09/02 02:48:38;;;;;;;17.57;13.07;;;;;;;19.12;79.59;95594.44;5037906;28;20764;-74
2023/09/02 02:51:04;;;;;;;17.53;13.10;;;;;;;19.30;78.98;95591.59;5016601;28;20242;-74
2023/09/02 02:53:30;;;;;;;19.03;12.80;;;;;;;19.12;79.67;95600.56;5033927;28;20256;-74
2023/09/02 02:55:56;;;;;;;18.77;13.40;;;;;;;18.95;80.68;95602.34;5026375;28;20225;-74
2023/09/02 02:58:22;;;;;;;19.03;13.43;;;;;;;18.95;80.00;95604.19;5037278;28;20287;-73
2023/09/02 03:00:48;;;;;;;17.83;12.40;;;;;;;19.09;79.55;95602.88;5027406;28;20234;-74
2023/09/02 03:03:15;;;;;;;19.10;13.07;;;;;;;19.21;78.91;95607.09;5025080;28;20709;-75
2023/09/02 03:05:49;;;;;;;21.80;13.13;;;;;;;18.80;80.55;95599.38;5015104;28;20718;-75
2023/09/02 03:08:17;;;;;;;24.60;13.77;;;;;;;18.89;80.11;95602.47;5058910;28;20769;-74
2023/09/02 03:10:54;;;;;;;20.33;13.50;;;;;;;18.97;80.05;95604.75;5038953;28;20321;-75
2023/09/02 03:13:20;;;;;;;20.53;13.13;;;;;;;18.58;81.50;95612.41;5040028;28;20232;-74
2023/09/02 03:15:53;;;;;;;18.63;12.97;;;;;;;18.65;81.56;95607.78;5003756;28;20235;-74
2023/09/02 03:18:19;;;;;;;18.10;12.70;;;;;;;18.79;80.40;95606.50;5045459;28;20626;-74
2023/09/02 03:20:44;;;;;;;19.47;12.73;;;;;;;18.62;81.61;95602.16;5067735;28;20234;-74
2023/09/02 03:23:10;;;;;;;18.53;13.20;;;;;;;18.61;81.78;95604.00;5046814;28;20242;-73
2023/09/02 03:25:47;;;;;;;21.90;13.73;;;;;;;18.27;83.06;95612.75;5007139;28;20224;-74
2023/09/02 03:28:13;;;;;;;20.63;12.90;;;;;;;18.23;83.53;95608.13;5016305;28;20248;-74
2023/09/02 03:30:41;;;;;;;19.57;13.37;;;;;;;18.39;82.67;95616.19;5032088;28;20291;-74
2023/09/02 03:33:20;;;;;;;;;;;;;;;;;;;;;
2023/09/02 03:35:49;;;;;;;18.63;12.93;;;;;;;18.40;82.63;95601.09;5005662;28;20233;-75
2023/09/02 03:38:21;;;;;;;19.40;13.33;;;;;;;18.36;83.22;95602.63;4982292;28;20247;-76
2023/09/02 03:41:08;;;;;;;19.60;12.80;;;;;;;18.28;83.20;95613.56;5019993;28;20235;-77
2023/09/02 03:43:45;;;;;;;18.67;13.07;;;;;;;18.30;83.42;95611.47;5032463;28;20236;-76
2023/09/02 03:46:24;;;;;;;;;;;;;;;;;;;;;
2023/09/02 03:49:00;;;;;;;20.83;13.23;;;;;;;18.24;84.21;95607.09;5037046;28;20917;-74
2023/09/02 03:51:34;;;;;;;18.90;13.37;;;;;;;18.28;83.90;95611.72;5045164;28;20306;-75
2023/09/02 03:54:04;;;;;;;20.17;13.83;;;;;;;18.36;83.67;95611.38;5039815;28;20228;-74
2023/09/02 03:56:36;;;;;;;20.23;12.77;;;;;;;18.11;84.58;95606.28;5034675;28;20241;-74
2023/09/02 03:59:03;;;;;;;19.10;13.83;;;;;;;18.21;84.37;95618.97;5035797;28;20378;-74
2023/09/02 04:01:30;;;;;;;22.73;13.40;;;;;;;18.20;84.55;95617.34;5034034;28;20232;-74
2023/09/02 04:03:56;;;;;;;20.53;13.53;;;;;;;18.30;84.07;95622.88;5040391;28;20261;-74
2023/09/02 04:06:21;;;;;;;20.50;13.60;;;;;;;18.25;84.68;95617.47;5034052;28;20233;-74
2023/09/02 04:08:47;;;;;;;20.07;13.53;;;;;;;18.20;84.85;95619.22;5008844;28;20230;-73
2023/09/02 04:11:13;;;;;;;20.33;13.33;;;;;;;17.95;86.01;95624.69;5026401;28;21305;-73
2023/09/02 04:13:38;;;;;;;18.90;13.53;;;;;;;18.05;85.64;95620.47;5031660;28;20237;-74
2023/09/02 04:16:08;;;;;;;18.87;13.07;;;;;;;18.12;85.35;95626.47;5026196;28;20957;-75
2023/09/02 04:18:35;;;;;;;21.83;13.40;;;;;;;18.33;84.73;95617.13;5039391;28;20224;-74
2023/09/02 04:21:00;;;;;;;20.30;13.87;;;;;;;18.38;84.55;95627.84;5021147;28;20237;-75
2023/09/02 04:23:26;;;;;;;19.77;13.67;;;;;;;18.19;85.08;95626.34;5037660;28;20733;-74
2023/09/02 04:25:53;;;;;;;21.73;13.53;;;;;;;18.51;83.76;95629.50;5026316;28;20228;-74
2023/09/02 04:28:18;;;;;;;18.47;13.27;;;;;;;18.48;83.58;95636.09;5017165;28;20229;-74
2023/09/02 04:30:44;;;;;;;19.53;13.70;;;;;;;18.47;83.79;95629.16;5017701;28;20290;-74
2023/09/02 04:33:11;;;;;;;25.53;13.57;;;;;;;18.41;84.08;95634.53;5032344;28;20231;-73
2023/09/02 04:35:40;;;;;;;22.57;14.53;;;;;;;18.37;84.67;95633.38;5032275;28;20232;-73
2023/09/02 04:38:06;;;;;;;20.23;13.77;;;;;;;18.47;84.17;95637.09;5022370;28;20371;-73
2023/09/02 04:40:38;;;;;;;19.30;13.07;;;;;;;18.49;84.07;95632.38;5045367;28;20228;-73
2023/09/02 04:43:05;;;;;;;20.20;13.27;;;;;;;18.54;83.50;95639.63;5051494;28;20220;-73
2023/09/02 04:45:33;;;;;;;19.40;12.47;;;;;;;18.60;82.80;95636.88;5029199;28;20286;-74
2023/09/02 04:47:59;;;;;;;17.03;12.17;;;;;;;18.59;82.31;95637.91;5031256;28;20244;-73
2023/09/02 04:50:24;;;;;;;16.93;12.33;;;;;;;18.61;82.13;95641.13;5041200;28;20229;-74
2023/09/02 04:52:50;;;;;;;16.43;11.17;;;;;;;18.66;80.68;95649.22;5032966;28;20247;-74
2023/09/02 04:55:16;;;;;;;15.30;11.13;;;;;;;18.76;80.63;95646.78;5039724;28;20251;-73
2023/09/02 04:57:42;;;;;;;15.20;10.97;;;;;;;18.73;80.61;95655.19;5032193;28;20236;-74
2023/09/02 05:00:09;;;;;;;16.80;11.30;;;;;;;18.78;80.63;95655.31;5045883;28;20235;-73
2023/09/02 05:02:34;;;;;;;16.00;11.33;;;;;;;18.63;81.35;95648.84;5027789;28;20317;-74
2023/09/02 05:05:00;;;;;;;15.07;11.20;;;;;;;18.75;80.70;95650.47;5029693;28;20233;-74
2023/09/02 05:07:26;;;;;;;17.40;12.13;;;;;;;18.73;80.71;95652.53;5051927;28;20236;-74
2023/09/02 05:09:57;;;;;;;19.70;11.60;;;;;;;18.83;79.83;95663.38;5051197;28;20229;-77
2023/09/02 05:12:23;;;;;;;15.87;11.70;;;;;;;18.87;79.47;95655.75;4993501;28;20244;-76
2023/09/02 05:14:52;;;;;;;18.73;12.70;;;;;;;18.79;79.58;95659.56;5029630;28;20234;-76
2023/09/02 05:17:18;;;;;;;16.53;11.87;;;;;;;18.81;79.63;95651.38;5020188;28;20252;-76
2023/09/02 05:19:43;;;;;;;16.93;11.67;;;;;;;18.75;79.45;95647.00;5046073;28;20279;-77
2023/09/02 05:22:09;;;;;;;16.07;11.53;;;;;;;18.76;79.57;95654.75;5038499;28;20317;-76
2023/09/02 05:24:35;;;;;;;18.70;12.20;;;;;;;18.53;80.54;95654.72;5045243;28;20233;-76
2023/09/02 05:27:00;;;;;;;16.83;12.00;;;;;;;18.85;79.06;95663.13;5027411;28;20238;-76
2023/09/02 05:29:26;;;;;;;16.33;12.23;;;;;;;18.88;79.48;95660.03;5047647;28;20279;-77
2023/09/02 05:31:51;;;;;;;14.23;10.73;;;;;;;18.86;79.24;95653.34;5053468;28;20710;-77
2023/09/02 05:34:25;;;;;;;17.77;12.60;;;;;;;18.45;81.15;95657.72;5003044;28;20294;-77
2023/09/02 05:37:06;;;;;;;16.87;11.93;;;;;;;18.86;79.59;95659.47;5040959;28;20303;-76
2023/09/02 05:39:44;;;;;;;15.67;11.40;;;;;;;19.14;78.19;95656.06;5033767;28;20364;-77
2023/09/02 05:42:09;;;;;;;15.50;10.77;;;;;;;19.06;78.35;95649.25;5033883;28;20402;-75
2023/09/02 05:44:35;;;;;;;15.03;11.20;;;;;;;19.24;77.48;95657.09;5051825;28;20242;-72
2023/09/02 05:47:01;;;;;;;15.60;11.17;;;;;;;19.28;76.69;95650.25;5036554;28;20244;-73
2023/09/02 05:49:27;;;;;;;16.33;11.20;;;;;;;19.36;76.73;95654.41;5004853;28;20308;-72
2023/09/02 05:51:52;;;;;;;15.87;11.60;;;;;;;19.50;76.42;95669.03;5024908;28;20303;-74
2023/09/02 05:54:18;;;;;;;15.23;11.07;;;;;;;19.48;76.85;95661.31;5024442;28;20618;-72
2023/09/02 05:56:46;;;;;;;14.97;11.30;;;;;;;19.57;76.12;95667.03;5048216;28;20269;-74
2023/09/02 05:59:13;;;;;;;19.80;11.27;;;;;;;19.63;75.99;95660.00;5046316;28;20292;-74
2023/09/02 06:01:38;;;;;;;19.70;12.20;;;;;;;19.77;75.23;95669.28;5043096;28;20739;-74
2023/09/02 06:04:04;;;;;;;18.13;12.00;;;;;;;19.75;75.73;95677.47;5024358;28;20230;-74
2023/09/02 06:06:29;;;;;;;17.20;11.43;;;;;;;19.85;75.13;95666.22;5008897;28;20237;-73
2023/09/02 06:08:55;;;;;;;16.93;11.90;;;;;;;19.96;74.92;95666.19;5039554;28;20233;-74
2023/09/02 06:11:21;;;;;;;17.83;11.77;;;;;;;20.06;73.87;95671.66;5016424;28;20230;-74
2023/09/02 06:13:46;;;;;;;18.37;11.77;;;;;;;19.95;74.16;95669.06;5019279;28;20838;-72
2023/09/02 06:16:12;;;;;;;22.13;12.27;;;;;;;20.00;74.51;95677.13;5043363;28;20272;-74
2023/09/02 06:18:38;;;;;;;18.20;11.43;;;;;;;20.21;73.79;95678.28;5035370;28;20241;-74
2023/09/02 06:21:10;;;;;;;21.63;11.87;;;;;;;20.23;73.75;95679.69;5033048;28;20975;-73
2023/09/02 06:23:36;;;;;;;17.83;12.50;;;;;;;20.26;73.52;95679.19;5020314;28;20603;-74
2023/09/02 06:26:02;;;;;;;20.93;12.67;;;;;;;20.10;74.59;95675.47;5018687;28;20244;-73
2023/09/02 06:28:28;;;;;;;19.53;12.73;;;;;;;20.13;74.38;95677.63;5032232;28;20288;-75
2023/09/02 06:31:03;;;;;;;18.33;12.27;;;;;;;20.28;73.83;95668.31;5047913;28;20339;-75
2023/09/02 06:33:28;;;;;;;18.90;12.70;;;;;;;20.29;73.17;95681.38;5022927;28;20264;-75
2023/09/02 06:36:21;;;;;;;18.83;12.70;;;;;;;20.34;73.58;95670.03;5033960;28;20225;-75
2023/09/02 06:38:47;;;;;;;18.20;12.80;;;;;;;20.44;72.90;95675.50;5049689;28;20228;-76
2023/09/02 06:41:30;;;;;;;20.17;12.43;;;;;;;20.54;72.74;95668.47;5028201;28;20245;-77
2023/09/02 06:44:02;;;;;;;21.33;12.33;;;;;;;20.60;72.79;95672.03;5025674;28;20229;-74
2023/09/02 06:46:38;;;;;;;20.53;12.60;;;;;;;20.68;72.06;95674.28;5038000;28;20253;-75
2023/09/02 06:49:37;;;;;;;;;;;;;;;;;;;;;
2023/09/02 06:52:03;;;;;;;17.63;12.17;;;;;;;20.85;71.96;95668.94;4999545;28;20239;-74
2023/09/02 06:54:52;;;;;;;20.40;13.30;;;;;;;20.58;71.64;95672.28;5002480;28;20239;-75
2023/09/02 06:57:42;;;;;;;18.30;12.67;;;;;;;20.67;71.75;95667.34;4967620;28;20397;-74
2023/09/02 07:00:16;;;;;;;18.23;12.00;;;;;;;20.78;71.52;95669.09;4993274;28;20234;-73
2023/09/02 07:02:42;;;;;;;18.37;12.10;;;;;;;20.94;70.88;95676.25;4994232;28;20834;-74
2023/09/02 07:05:30;;;;;;;18.17;12.43;;;;;;;20.93;70.72;95677.31;4980671;28;20712;-75
2023/09/02 07:07:56;;;;;;;17.37;12.10;;;;;;;21.08;69.69;95680.22;4970956;28;20282;-75
2023/09/02 07:10:28;;;;;;;19.27;11.35;;;;;;;21.17;69.52;95668.09;5002862;28;20227;-75
2023/09/02 07:12:54;;;;;;;20.38;12.23;;;;;;;21.19;69.38;95670.47;4978654;28;20689;-74
2023/09/02 07:15:35;;;;;;;20.00;12.10;;;;;;;21.24;69.19;95671.38;4982745;28;21095;-74
2023/09/02 07:18:08;;;;;;;17.70;12.30;;;;;;;21.32;68.86;95667.47;4994829;28;20308;-74
2023/09/02 07:20:37;;;;;;;16.57;11.30;;;;;;;21.45;68.40;95675.06;5023139;28;20236;-77
2023/09/02 07:23:17;;;;;;;17.70;12.17;;;;;;;21.46;68.12;95674.84;5000894;28;20237;-77
2023/09/02 07:26:01;;;;;;;17.90;12.17;;;;;;;21.46;67.70;95672.19;5045372;28;20352;-78
2023/09/02 07:28:30;;;;;;;17.47;11.23;;;;;;;21.45;67.99;95670.56;5018140;28;20260;-78
2023/09/02 07:31:07;;;;;;;15.33;11.40;;;;;;;21.72;67.65;95672.44;5028770;28;20225;-77
2023/09/02 07:33:38;;;;;;;17.23;11.50;;;;;;;21.82;67.27;95672.56;5044747;28;20232;-76
2023/09/02 07:36:11;;;;;;;17.40;11.23;;;;;;;21.81;66.41;95670.94;5039266;28;20341;-76
2023/09/02 07:38:39;;;;;;;17.83;11.33;;;;;;;21.91;66.26;95669.22;4997410;28;20244;-77
2023/09/02 07:41:09;;;;;;;18.50;12.30;;;;;;;21.78;66.54;95669.59;5047951;28;20328;-76
2023/09/02 07:43:35;;;;;;;20.35;11.73;;;;;;;21.95;66.06;95664.19;5062011;28;20229;-77
2023/09/02 07:46:13;;;;;;;18.73;11.48;;;;;;;22.00;65.98;95667.72;5063695;28;20313;-77
2023/09/02 07:48:51;;;;;;;17.40;11.80;;;;;;;22.10;65.43;95667.00;5038148;28;20324;-77
2023/09/02 07:51:21;;;;;;;15.15;11.40;;;;;;;22.13;65.42;95671.84;5032067;28;20227;-76
2023/09/02 07:53:57;;;;;;;19.33;11.60;;;;;;;22.15;65.48;95669.72;5047743;28;20233;-76
2023/09/02 07:56:23;;;;;;;19.92;12.07;;;;;;;22.37;64.45;95666.97;5055314;28;20243;-76
2023/09/02 07:58:56;;;;;;;15.38;11.45;;;;;;;22.48;64.87;95666.00;5049245;28;20764;-76
2023/09/02 08:01:21;;;;;;;16.10;11.30;;;;;;;;;;5033475;28;20233;-76
2023/09/02 08:03:50;;;;;;;17.85;11.30;;;;;;;22.81;62.95;95678.28;5005664;28;20233;-77
2023/09/02 08:06:19;;;;;;;17.00;11.35;;;;;;;22.92;62.18;95678.09;5037170;28;20320;-77
2023/09/02 08:08:44;;;;;;;15.60;10.88;;;;;;;22.93;62.25;95671.66;5049239;28;20252;-76
2023/09/02 08:11:17;;;;;;;16.85;11.18;;;;;;;22.95;62.10;95677.56;5018797;28;20228;-76
2023/09/02 08:13:53;;;;;;;;;;;;;;;;;;;;;
2023/09/02 08:16:19;;;;;;;17.23;10.80;;;;;;;23.25;61.03;95683.09;5033520;28;21513;-77
2023/09/02 08:19:02;;;;;;;17.17;10.75;;;;;;;23.37;60.41;95673.03;5023461;28;20263;-78
2023/09/02 08:21:28;;;;;;;14.70;10.52;;;;;;;23.47;60.26;95677.59;5034003;28;21105;-75
2023/09/02 08:23:55;;;;;;;15.40;10.50;;;;;;;23.42;59.43;95675.72;5064298;28;20221;-78
2023/09/02 08:26:24;;;;;;;14.05;10.13;;;;;;;23.49;59.29;95682.69;5049043;28;20229;-77
2023/09/02 08:29:25;;;;;;;16.27;10.70;;;;;;;23.62;59.25;95674.97;5054138;28;20228;-78
2023/09/02 08:31:55;;;;;;;21.20;9.65;;;;;;;23.82;58.98;95677.72;5040400;28;20323;-76
2023/09/02 08:34:31;;;;;;;14.40;9.63;;;;;;;23.84;58.81;95672.91;5017601;28;20235;-77
2023/09/02 08:37:09;;;;;;;17.02;10.07;;;;;;;23.88;58.26;95673.97;5017269;28;20255;-77
2023/09/02 08:39:50;;;;;;;15.73;8.85;;;;;;;23.95;57.76;95673.75;5031131;28;20749;-75
2023/09/02 08:42:17;;;;;;;13.70;8.70;;;;;;;24.20;57.01;95668.44;5058170;28;20256;-77
2023/09/02 08:45:00;;;;;;;11.00;7.50;;;;;;;24.17;54.06;95666.31;5031541;28;20267;-77
2023/09/02 08:47:32;;;;;;;10.50;7.32;;;;;;;24.38;54.64;95669.81;5018515;28;20230;-76
2023/09/02 08:50:09;;;;;;;13.98;7.55;;;;;;;24.34;54.97;95663.38;5025190;28;20244;-75
2023/09/02 08:52:41;;;;;;;12.48;7.70;;;;;;;24.41;53.79;95664.72;5028369;28;20765;-75
2023/09/02 08:55:36;;;;;;;12.75;7.50;;;;;;;24.66;53.18;95669.28;5022042;28;20239;-77
2023/09/02 08:58:05;;;;;;;9.48;7.43;;;;;;;24.66;53.93;95659.38;5012365;28;20241;-75
2023/09/02 09:00:35;;;;;;;12.98;7.40;;;;;;;24.56;53.86;95664.72;5051905;28;20266;-75
2023/09/02 09:03:13;;;;;;;9.45;7.25;;;;;;;24.58;53.92;95661.75;5049296;28;20232;-76
2023/09/02 09:05:57;;;;;;;;;;;;;;;;;;;;;
2023/09/02 09:08:23;;;;;;;10.25;6.88;;;;;;;24.99;53.65;95652.63;5047459;28;20979;-76
2023/09/02 09:11:16;;;;;;;10.60;7.40;;;;;;;25.01;52.42;95647.81;5013210;28;20245;-76
2023/09/02 09:13:55;;;;;;;10.38;7.13;;;;;;;25.12;52.23;95656.63;5036948;28;20228;-75
2023/09/02 09:16:43;;;;;;;10.57;7.10;;;;;;;25.06;52.52;95652.34;5022894;28;20260;-76
2023/09/02 09:19:12;;;;;;;11.15;7.18;;;;;;;25.23;52.10;95656.34;5019552;28;20251;-75
2023/09/02 09:21:38;;;;;;;10.73;7.57;;;;;;;25.30;52.56;95642.63;5048807;28;20709;-75
2023/09/02 09:24:04;;;;;;;10.55;7.50;;;;;;;25.42;52.75;95643.13;5035626;28;20228;-75
2023/09/02 09:26:30;;;;;;;11.15;7.53;;;;;;;25.50;52.27;95645.28;5049857;28;20289;-75
2023/09/02 09:28:58;;;;;;;9.32;7.47;;;;;;;25.64;52.07;95643.59;5031989;28;20232;-76
2023/09/02 09:31:35;;;;;;;22.52;8.95;;;;;;;25.73;51.83;95644.63;5056203;28;20248;-76
2023/09/02 09:34:04;;;;;;;10.75;7.70;;;;;;;25.68;51.09;95643.81;5026117;28;20491;-76
2023/09/02 09:36:45;;;;;;;13.35;7.75;;;;;;;25.56;51.06;95635.31;5039501;28;20299;-75
2023/09/02 09:39:27;;;;;;;10.52;7.05;;;;;;;25.79;50.96;95640.03;4998048;28;20225;-75
2023/09/02 09:41:52;;;;;;;12.65;7.45;;;;;;;25.95;50.91;95634.28;5011299;28;20237;-76
2023/09/02 09:44:21;;;;;;;10.65;7.50;;;;;;;26.04;50.41;95632.63;4988487;28;20236;-74
2023/09/02 09:46:52;;;;;;;9.18;7.72;;;;;;;25.98;50.27;95622.22;5018818;28;20292;-75
2023/09/02 09:49:27;;;;;;;10.35;7.47;;;;;;;26.05;50.10;95628.06;5015958;28;21078;-76
2023/09/02 09:52:02;;;;;;;10.38;7.18;;;;;;;26.13;50.78;95626.69;4982583;28;20233;-78
2023/09/02 09:54:47;;;;;;;9.07;6.80;;;;;;;26.34;48.92;95633.50;5032242;28;20300;-76
2023/09/02 09:57:29;;;;;;;9.43;6.70;;;;;;;26.46;48.35;95628.59;5023722;28;20245;-76
2023/09/02 09:59:58;;;;;;;8.65;6.60;;;;;;;26.46;47.26;95624.00;5015896;28;20225;-77
2023/09/02 10:02:39;;;;;;;9.00;6.88;;;;;;;26.43;49.05;95624.56;5016409;28;20236;-77
2023/09/02 10:05:27;;;;;;;11.35;7.30;;;;;;;26.57;48.46;95614.78;5037548;28;20237;-76
2023/09/02 10:08:10;;;;;;;9.93;6.68;;;;;;;26.68;48.21;95621.66;5023645;28;20240;-76
2023/09/02 10:10:53;;;;;;;9.55;6.82;;;;;;;26.70;47.83;95618.69;5063710;28;20931;-78
2023/09/02 10:13:28;;;;;;;8.88;6.90;;;;;;;26.79;48.22;95613.53;5031013;28;20911;-78
2023/09/02 10:15:56;;;;;;;8.57;6.70;;;;;;;26.91;47.45;95608.56;5023723;28;20226;-76
2023/09/02 10:18:25;;;;;;;9.25;6.43;;;;;;;26.87;47.48;95610.25;5011864;28;20313;-79
2023/09/02 10:20:54;;;;;;;11.30;6.68;;;;;;;26.93;47.09;95609.88;5007333;28;20250;-77
2023/09/02 10:23:38;;;;;;;7.22;6.30;;;;;;;27.05;46.38;95601.44;5019046;28;20233;-77
2023/09/02 10:26:06;;;;;;;9.55;6.70;;;;;;;27.17;45.54;95597.25;5035026;28;20235;-78
2023/09/02 10:28:58;;;;;;;8.57;6.68;;;;;;;27.35;45.38;95599.19;5009288;28;20377;-77
2023/09/02 10:31:25;;;;;;;7.95;5.85;;;;;;;27.45;43.81;95606.34;5027761;28;20231;-78
2023/09/02 10:34:19;;;;;;;9.02;6.20;;;;;;;27.52;44.00;95603.28;5023033;28;20241;-78
2023/09/02 10:36:51;;;;;;;10.32;5.95;;;;;;;27.36;43.50;95608.84;5013176;28;20240;-78
2023/09/02 10:39:24;;;;;;;7.43;6.10;;;;;;;27.56;43.67;95599.72;5018631;28;20235;-75
2023/09/02 10:42:07;;;;;;;7.90;5.60;;;;;;;27.63;42.97;95599.41;4993834;28;20372;-75
2023/09/02 10:44:33;;;;;;;7.55;5.97;;;;;;;27.73;42.72;95591.97;4955894;28;20234;-76
2023/09/02 10:47:07;;;;;;;8.75;6.10;;;;;;;27.80;42.27;95595.09;5028005;28;20228;-76
2023/09/02 10:49:36;;;;;;;6.82;5.70;;;;;;;27.82;40.67;95600.97;5007574;28;20232;-77
2023/09/02 10:52:05;;;;;;;7.85;5.68;;;;;;;27.84;41.27;95600.72;5003491;28;20234;-77
2023/09/02 10:55:18;;;;;;;6.65;5.68;;;;;;;27.96;40.68;95604.56;5005795;28;20302;-77
2023/09/02 10:58:05;;;;;;;9.85;6.65;;;;;;;27.84;41.89;95600.72;5027199;28;20331;-76
2023/09/02 11:00:31;;;;;;;9.30;6.88;;;;;;;28.07;41.95;95590.97;5034821;28;20716;-77
2023/09/02 11:02:57;;;;;;;11.63;6.80;;;;;;;28.13;41.33;95592.50;5021535;28;20360;-78
2023/09/02 11:05:29;;;;;;;8.95;6.57;;;;;;;28.07;41.18;95591.78;5038079;28;20272;-77
2023/09/02 11:07:55;;;;;;;7.47;5.97;;;;;;;27.92;40.62;95602.72;5011140;28;20238;-76
2023/09/02 11:10:32;;;;;;;8.00;5.82;;;;;;;27.42;39.64;95590.00;5011510;28;20238;-79
2023/09/02 11:13:09;;;;;;;8.27;5.53;;;;;;;27.63;39.26;95589.44;5000696;28;20233;-77
2023/09/02 11:15:38;;;;;;;10.35;5.60;;;;;;;27.96;38.53;95587.63;5032470;28;20620;-77
2023/09/02 11:18:31;;;;;;;8.50;5.47;;;;;;;28.05;37.87;95583.19;5039121;28;20278;-76
2023/09/02 11:20:57;;;;;;;7.35;5.40;;;;;;;28.20;38.08;95576.78;5029865;28;20221;-77
2023/09/02 11:23:28;;;;;;;8.23;6.20;;;;;;;28.32;38.85;95582.50;5008310;28;20825;-77
2023/09/02 11:26:01;;;;;;;9.35;7.05;;;;;;;28.25;40.66;95574.00;5010393;28;20264;-76
2023/09/02 11:28:26;;;;;;;10.77;7.53;;;;;;;28.40;40.25;95571.84;5037358;28;20364;-76
2023/09/02 11:31:01;;;;;;;10.82;6.90;;;;;;;28.47;38.76;95576.84;5013846;28;20316;-77
2023/09/02 11:33:33;;;;;;;10.13;6.97;;;;;;;28.55;39.64;95562.69;5050869;28;20315;-76
2023/09/02 11:36:12;;;;;;;9.25;6.85;;;;;;;28.78;37.63;95559.06;5042216;28;20221;-78
2023/09/02 11:38:38;;;;;;;8.55;6.43;;;;;;;28.88;38.62;95556.19;5051988;28;20236;-76
2023/09/02 11:41:04;;;;;;;11.15;6.72;;;;;;;28.70;36.53;95554.38;5036660;28;20228;-77
2023/09/02 11:43:35;;;;;;;9.13;6.95;;;;;;;28.66;37.78;95559.56;5028163;28;20234;-77
2023/09/02 11:46:18;;;;;;;10.65;7.00;;;;;;;28.92;38.37;95551.81;5029280;28;20244;-77
2023/09/02 11:48:44;;;;;;;8.30;6.50;;;;;;;29.02;37.08;95554.28;5047387;28;20223;-77
2023/09/02 11:51:17;;;;;;;8.48;6.70;;;;;;;28.90;38.30;95551.28;5062152;28;20379;-77